createdAt,value
2023-03-30T00:04:12.361Z,11.40
2023-03-30T00:09:14.661Z,11.40
2023-03-30T00:14:18.017Z,11.50
2023-03-30T00:19:19.740Z,11.50
2023-03-30T00:24:21.783Z,11.50
2023-03-30T00:29:23.620Z,11.40
2023-03-30T00:34:25.566Z,11.30
2023-03-30T00:39:27.572Z,11.20
2023-03-30T00:45:09.400Z,11.20
2023-03-30T00:50:12.617Z,11.10
2023-03-30T00:55:16.537Z,11.10
2023-03-30T01:00:19.577Z,11.10
2023-03-30T01:05:24.010Z,11.10
2023-03-30T01:10:26.045Z,11.10
2023-03-30T01:15:34.680Z,11.00
2023-03-30T01:21:04.200Z,11.00
2023-03-30T01:26:28.403Z,11.00
2023-03-30T01:32:01.092Z,11.00
2023-03-30T01:37:14.953Z,11.00
2023-03-30T01:42:35.263Z,11.00
2023-03-30T01:47:44.815Z,11.00
2023-03-30T01:52:50.471Z,11.00
2023-03-30T01:58:01.648Z,11.00
2023-03-30T02:03:13.932Z,11.00
2023-03-30T02:08:23.796Z,11.00
2023-03-30T02:13:28.518Z,11.00
2023-03-30T02:18:30.455Z,11.10
2023-03-30T02:23:36.680Z,11.00
2023-03-30T02:28:38.858Z,10.90
2023-03-30T02:33:59.007Z,11.00
2023-03-30T02:39:44.581Z,10.90
2023-03-30T02:45:35.252Z,10.90
2023-03-30T02:50:57.185Z,10.90
2023-03-30T02:56:23.723Z,10.90
2023-03-30T03:01:28.336Z,10.80
2023-03-30T03:06:32.269Z,10.80
2023-03-30T03:11:33.977Z,10.90
2023-03-30T03:16:36.047Z,10.80
2023-03-30T03:21:37.861Z,10.90
2023-03-30T03:26:39.688Z,10.90
2023-03-30T03:31:41.529Z,10.80
2023-03-30T03:36:43.649Z,10.80
2023-03-30T03:41:45.625Z,10.70
2023-03-30T03:46:47.326Z,10.70
2023-03-30T03:51:49.044Z,10.80
2023-03-30T03:56:51.962Z,10.70
2023-03-30T04:01:53.849Z,10.70
2023-03-30T04:06:56.248Z,10.60
2023-03-30T04:11:57.958Z,10.70
2023-03-30T04:16:59.638Z,10.90
2023-03-30T04:22:01.414Z,10.90
2023-03-30T04:27:03.795Z,11.00
2023-03-30T04:32:05.701Z,11.10
2023-03-30T04:37:07.428Z,11.20
2023-03-30T04:42:13.995Z,11.30
2023-03-30T04:47:15.791Z,11.30
2023-03-30T04:52:17.995Z,11.30
2023-03-30T04:57:19.783Z,11.40
2023-03-30T05:02:21.580Z,11.40
2023-03-30T05:07:23.311Z,11.50
2023-03-30T05:12:24.995Z,11.60
2023-03-30T05:17:26.767Z,11.60
2023-03-30T05:22:28.473Z,11.70
2023-03-30T05:27:30.282Z,11.80
2023-03-30T05:32:32.171Z,11.80
2023-03-30T05:37:34.098Z,11.80
2023-03-30T05:42:36.496Z,11.90
2023-03-30T05:47:38.266Z,12.00
2023-03-30T05:52:40.092Z,12.00
2023-03-30T05:57:41.833Z,12.10
2023-03-30T06:02:43.618Z,12.10
2023-03-30T06:07:45.784Z,12.20
2023-03-30T06:12:47.504Z,12.30
2023-03-30T06:17:50.008Z,12.40
2023-03-30T06:22:52.519Z,12.40
2023-03-30T06:27:54.257Z,12.60
2023-03-30T06:32:56.015Z,12.70
2023-03-30T06:37:57.792Z,12.70
2023-03-30T06:42:59.543Z,12.70
2023-03-30T06:48:01.311Z,12.80
2023-03-30T06:53:04.437Z,12.80
2023-03-30T06:58:06.406Z,12.80
2023-03-30T07:03:08.840Z,13.00
2023-03-30T07:08:10.670Z,13.10
2023-03-30T07:13:12.412Z,13.60
2023-03-30T07:18:15.359Z,14.20
2023-03-30T07:23:17.562Z,14.50
2023-03-30T07:28:19.737Z,14.70
2023-03-30T07:33:22.029Z,14.80
2023-03-30T07:38:24.705Z,15.00
2023-03-30T07:43:27.320Z,15.20
2023-03-30T07:48:29.408Z,15.40
2023-03-30T07:53:31.154Z,15.30
2023-03-30T07:58:33.139Z,15.50
2023-03-30T08:03:37.015Z,15.80
2023-03-30T08:08:41.013Z,16.00
2023-03-30T08:13:44.406Z,16.10
2023-03-30T08:18:47.276Z,16.10
2023-03-30T08:23:48.975Z,15.90
2023-03-30T08:28:51.174Z,15.70
2023-03-30T08:33:53.093Z,15.60
2023-03-30T08:38:55.246Z,15.50
2023-03-30T08:44:00.803Z,15.40
2023-03-30T08:49:06.528Z,15.30
2023-03-30T08:54:16.021Z,15.20
2023-03-30T08:59:32.962Z,15.10
2023-03-30T09:05:02.106Z,15.00
2023-03-30T09:10:04.574Z,14.80
2023-03-30T09:15:12.572Z,14.80
2023-03-30T09:20:25.435Z,14.90
2023-03-30T09:25:34.891Z,15.00
2023-03-30T09:30:46.230Z,15.10
2023-03-30T09:36:23.218Z,15.40
2023-03-30T09:41:42.445Z,15.60
2023-03-30T09:46:44.184Z,15.70
2023-03-30T09:52:07.032Z,15.60
2023-03-30T09:57:30.065Z,15.60
2023-03-30T10:02:33.934Z,15.70
2023-03-30T10:07:39.548Z,15.70
2023-03-30T10:12:41.326Z,15.90
2023-03-30T10:17:44.814Z,16.30
2023-03-30T10:23:13.413Z,16.90
2023-03-30T10:28:21.620Z,17.10
2023-03-30T10:33:24.636Z,17.30
2023-03-30T10:38:32.378Z,17.60
2023-03-30T10:43:35.905Z,17.70
2023-03-30T10:49:02.280Z,17.60
2023-03-30T10:54:33.995Z,17.50
2023-03-30T10:59:54.212Z,17.50
2023-03-30T11:05:13.570Z,17.80
2023-03-30T11:10:22.247Z,17.80
2023-03-30T11:15:41.877Z,17.80
2023-03-30T11:21:08.619Z,17.60
2023-03-30T11:26:12.683Z,17.30
2023-03-30T11:31:49.398Z,17.20
2023-03-30T11:37:27.385Z,17.40
2023-03-30T11:42:32.182Z,17.60
2023-03-30T11:47:36.917Z,18.20
2023-03-30T11:52:56.794Z,18.40
2023-03-30T11:58:29.989Z,18.40
2023-03-30T12:03:34.770Z,18.10
2023-03-30T12:08:57.855Z,18.00
2023-03-30T12:14:00.840Z,18.20
2023-03-30T12:19:10.999Z,18.60
2023-03-30T12:24:17.204Z,18.90
2023-03-30T12:34:28.659Z,19.50
2023-03-30T12:39:45.066Z,19.30
2023-03-30T12:44:56.820Z,19.70
2023-03-30T12:50:29.281Z,19.70
2023-03-30T12:55:31.189Z,19.40
2023-03-30T13:00:48.493Z,19.40
2023-03-30T13:05:53.349Z,19.40
2023-03-30T13:11:15.963Z,19.80
2023-03-30T13:16:52.202Z,19.80
2023-03-30T13:22:12.129Z,19.30
2023-03-30T13:27:13.854Z,19.00
2023-03-30T13:32:21.106Z,18.60
2023-03-30T13:37:27.561Z,18.70
2023-03-30T13:43:01.498Z,18.60
2023-03-30T13:48:12.099Z,19.00
2023-03-30T13:53:17.157Z,19.30
2023-03-30T13:58:23.284Z,19.20
2023-03-30T14:03:30.817Z,19.20
2023-03-30T14:08:35.625Z,18.50
2023-03-30T14:13:38.522Z,16.20
2023-03-30T14:18:40.355Z,14.00
2023-03-30T14:23:49.744Z,13.30
2023-03-30T14:29:00.394Z,12.30
2023-03-30T14:34:20.222Z,12.30
2023-03-30T14:39:23.891Z,12.30
2023-03-30T14:44:25.738Z,12.10
2023-03-30T14:49:29.760Z,12.10
2023-03-30T14:54:31.620Z,12.00
2023-03-30T14:59:39.686Z,12.20
2023-03-30T15:04:41.810Z,12.20
2023-03-30T15:09:46.758Z,12.30
2023-03-30T15:14:49.957Z,12.40
2023-03-30T15:19:54.448Z,12.60
2023-03-30T15:25:00.810Z,12.70
2023-03-30T15:30:02.969Z,12.80
2023-03-30T15:35:10.693Z,12.90
2023-03-30T15:40:33.139Z,13.00
2023-03-30T15:45:36.521Z,13.00
2023-03-30T15:50:38.440Z,13.00
2023-03-30T15:55:43.588Z,13.10
2023-03-30T16:00:49.203Z,13.20
2023-03-30T16:05:51.015Z,13.30
2023-03-30T16:10:53.077Z,13.50
2023-03-30T16:15:55.695Z,14.20
2023-03-30T16:20:57.433Z,15.10
2023-03-30T16:25:59.393Z,15.80
2023-03-30T16:31:06.704Z,15.70
2023-03-30T16:36:14.346Z,15.40
2023-03-30T16:41:20.595Z,15.30
2023-03-30T16:46:22.713Z,15.10
2023-03-30T16:51:25.111Z,15.10
2023-03-30T16:56:27.479Z,15.20
2023-03-30T17:01:30.241Z,15.00
2023-03-30T17:06:31.920Z,14.80
2023-03-30T17:11:33.594Z,14.50
2023-03-30T17:16:36.400Z,14.30
2023-03-30T17:21:38.177Z,14.00
2023-03-30T17:26:40.361Z,13.80
2023-03-30T17:31:45.726Z,13.50
2023-03-30T17:36:47.821Z,13.40
2023-03-30T17:41:49.601Z,13.20
2023-03-30T17:46:51.314Z,13.40
2023-03-30T17:51:53.779Z,13.50
2023-03-30T17:56:55.623Z,13.60
2023-03-30T18:01:57.341Z,13.60
2023-03-30T18:07:05.793Z,13.60
2023-03-30T18:12:07.614Z,13.60
2023-03-30T18:17:11.460Z,13.60
2023-03-30T18:22:13.163Z,13.40
2023-03-30T18:27:14.934Z,13.10
2023-03-30T18:32:16.621Z,13.00
2023-03-30T18:37:18.349Z,12.80
2023-03-30T18:42:20.077Z,12.70
2023-03-30T18:47:22.194Z,12.60
2023-03-30T18:52:23.866Z,12.50
2023-03-30T18:57:25.653Z,12.50
2023-03-30T19:02:27.527Z,12.40
2023-03-30T19:07:29.487Z,12.30
2023-03-30T19:12:31.250Z,12.20
2023-03-30T19:17:32.979Z,12.10
2023-03-30T19:22:34.703Z,11.90
2023-03-30T19:27:36.535Z,11.80
2023-03-30T19:32:38.425Z,11.70
2023-03-30T19:37:41.199Z,11.60
2023-03-30T19:42:44.218Z,11.50
2023-03-30T19:47:46.397Z,11.40
2023-03-30T19:52:50.525Z,11.30
2023-03-30T19:57:52.568Z,11.30
2023-03-30T20:02:55.417Z,11.10
2023-03-30T20:07:58.148Z,11.10
2023-03-30T20:12:59.973Z,11.20
2023-03-30T20:18:02.345Z,11.20
2023-03-30T20:23:04.319Z,11.10
2023-03-30T20:28:06.152Z,11.00
2023-03-30T20:33:08.884Z,11.10
2023-03-30T20:38:10.826Z,11.30
2023-03-30T20:43:12.690Z,11.40
2023-03-30T20:48:26.342Z,11.50
2023-03-30T20:53:29.891Z,11.60
2023-03-30T20:58:32.042Z,11.60
2023-03-30T21:03:35.375Z,11.60
2023-03-30T21:08:37.212Z,11.60
2023-03-30T21:13:38.961Z,11.60
2023-03-30T21:18:40.848Z,11.60
2023-03-30T21:23:44.194Z,11.50
2023-03-30T21:28:46.085Z,11.60
2023-03-30T21:33:47.975Z,11.70
2023-03-30T21:38:49.781Z,11.60
2023-03-30T21:43:51.546Z,11.60
2023-03-30T21:48:54.241Z,11.70
2023-03-30T21:53:57.586Z,11.70
2023-03-30T21:58:59.624Z,11.70
2023-03-30T22:04:02.681Z,11.60
2023-03-30T22:09:06.480Z,11.30
2023-03-30T22:14:08.336Z,11.30
2023-03-30T22:19:10.133Z,11.20
2023-03-30T22:24:12.742Z,11.20
2023-03-30T22:29:14.769Z,11.20
2023-03-30T22:34:16.852Z,11.30
2023-03-30T22:39:19.167Z,11.30
2023-03-30T22:44:21.422Z,11.40
2023-03-30T22:49:24.786Z,11.40
2023-03-30T22:54:26.449Z,11.40
2023-03-30T22:59:29.673Z,11.30
2023-03-30T23:04:31.438Z,11.40
2023-03-30T23:09:33.461Z,11.40
2023-03-30T23:14:37.951Z,11.30
2023-03-30T23:19:40.204Z,11.10
2023-03-30T23:24:42.379Z,11.20
2023-03-30T23:29:44.186Z,11.30
2023-03-30T23:34:46.572Z,11.30
2023-03-30T23:39:48.862Z,11.30
2023-03-30T23:44:50.671Z,11.30
2023-03-30T23:49:52.371Z,11.30
2023-03-30T23:54:54.086Z,11.30
2023-03-30T23:59:55.767Z,11.30
